Vanguard, Canada
Current Conditions -  °F | °C
As of 3:00 PM on Tuesday 21 Oct 2014 (Local Time) from CYYN Reporting Station
Clear Clear  
Wind Chill: 66°   Ceiling: Unl
Heat Index: 66°   Visibility: 9mi
Dew Point: 36°   Wind: 14mph
Humidity: 32%   Direction: 270°W
Pressure: 29.55"   Gusts: 20mph
Location:  49.9°N, 107.3°W
Report Text: CYYN 212100Z AUTO 27012G17KT 9SM CLR 19/02 A2955 RMK SLP006 DENSITY ALT 4200FT
Loading
Personal Weather Stations






























Interactive Weather Map
Tropical Storm Tracking
New forecast layout! Learn more

10-Day Weather Forecast

Advertisements
Track Severe Weather on mobile